Time;durP1;ratioP1;P1;durP2;ratioP2;P2;SDS_P1;SDS_P2;PMS_P1;PMS_P2;Temp;Humidity;BMP_temperature;BMP_pressure;BME280_temperature;BME280_humidity;BME280_pressure;Samples;Min_cycle;Max_cycle;Signal;HPM_P1;HPM_P2
2020/12/14 00:00:08;;;;;;;4.25;2.30;;;6.50;95.30;;;;;;4957920;29;20126;-86
2020/12/14 00:02:36;;;;;;;5.72;2.58;;;6.60;95.50;;;;;;4941159;29;20724;-85
2020/12/14 00:05:03;;;;;;;3.50;1.85;;;6.60;95.10;;;;;;4958405;29;20146;-85
2020/12/14 00:07:29;;;;;;;5.53;2.40;;;6.60;95.00;;;;;;4958005;29;20471;-85
2020/12/14 00:09:58;;;;;;;4.97;2.63;;;6.50;95.10;;;;;;4957951;29;20485;-85
2020/12/14 00:12:24;;;;;;;4.30;2.53;;;6.70;95.10;;;;;;4957481;28;20058;-84
2020/12/14 00:14:51;;;;;;;4.10;2.10;;;6.60;95.00;;;;;;4957955;29;20129;-84
2020/12/14 00:17:19;;;;;;;4.32;2.15;;;6.60;95.10;;;;;;4958844;28;20079;-86
2020/12/14 00:19:47;;;;;;;5.22;2.30;;;6.50;95.10;;;;;;4958477;28;20167;-85
2020/12/14 00:22:13;;;;;;;4.75;2.47;;;6.60;95.00;;;;;;4957967;28;20565;-85
2020/12/14 00:24:40;;;;;;;4.82;2.58;;;6.50;95.20;;;;;;4958865;28;20130;-86
2020/12/14 00:27:07;;;;;;;5.13;2.88;;;6.50;95.20;;;;;;4956854;28;20127;-85
2020/12/14 00:29:34;;;;;;;6.03;3.05;;;6.50;95.10;;;;;;4957906;28;20086;-86
2020/12/14 00:32:00;;;;;;;5.07;2.95;;;6.50;95.40;;;;;;4957955;29;20155;-85
2020/12/14 00:34:27;;;;;;;4.90;3.20;;;6.20;95.80;;;;;;4957535;29;20087;-85
2020/12/14 00:36:54;;;;;;;5.30;3.50;;;6.30;95.60;;;;;;4957298;29;20134;-84
2020/12/14 00:39:21;;;;;;;5.30;3.15;;;6.30;95.70;;;;;;4956737;28;20130;-85
2020/12/14 00:41:48;;;;;;;7.13;3.33;;;6.30;95.70;;;;;;4951601;29;20090;-85
2020/12/14 00:44:14;;;;;;;6.18;3.50;;;6.20;96.20;;;;;;4957746;29;20130;-85
2020/12/14 00:46:44;;;;;;;5.30;3.20;;;6.00;96.00;;;;;;4957281;29;20468;-84
2020/12/14 00:49:11;;;;;;;5.90;3.47;;;5.80;96.30;;;;;;4957346;28;20078;-85
2020/12/14 00:51:37;;;;;;;5.45;3.45;;;5.90;96.20;;;;;;4957435;28;20138;-85
2020/12/14 00:54:06;;;;;;;5.00;3.10;;;5.90;96.20;;;;;;4956185;28;20130;-85
2020/12/14 00:56:33;;;;;;;5.95;3.92;;;6.10;96.10;;;;;;4957288;29;20047;-87
2020/12/14 00:58:59;;;;;;;7.18;3.38;;;6.00;96.30;;;;;;4957124;28;20134;-87
2020/12/14 01:01:26;;;;;;;5.28;3.35;;;6.00;96.00;;;;;;4957253;29;20147;-87
2020/12/14 01:03:52;;;;;;;6.50;3.80;;;6.10;95.70;;;;;;4956696;28;20137;-87
2020/12/14 01:06:19;;;;;;;5.13;3.15;;;6.30;95.50;;;;;;4957056;28;20571;-88
2020/12/14 01:08:46;;;;;;;6.50;3.30;;;6.40;95.30;;;;;;4956772;29;20147;-86
2020/12/14 01:11:13;;;;;;;5.32;2.97;;;6.40;95.10;;;;;;4957556;28;20057;-86
2020/12/14 01:13:40;;;;;;;5.05;3.05;;;6.40;95.00;;;;;;4957177;29;20143;-86
2020/12/14 01:16:09;;;;;;;4.57;3.00;;;6.40;94.80;;;;;;4958086;28;20143;-86
2020/12/14 01:18:37;;;;;;;5.20;2.90;;;6.50;94.70;;;;;;4957381;29;20107;-86
2020/12/14 01:21:04;;;;;;;5.50;3.08;;;6.50;94.60;;;;;;4956183;28;20090;-86
2020/12/14 01:23:31;;;;;;;4.40;2.55;;;6.60;94.60;;;;;;4957225;29;20149;-86
2020/12/14 01:25:58;;;;;;;4.57;2.75;;;6.50;94.50;;;;;;4957024;29;20105;-86
2020/12/14 01:28:26;;;;;;;4.88;2.80;;;6.50;94.40;;;;;;4956595;29;20086;-86
2020/12/14 01:30:53;;;;;;;5.80;2.90;;;6.60;94.30;;;;;;4956635;28;20094;-86
2020/12/14 01:33:19;;;;;;;4.32;2.40;;;6.50;94.30;;;;;;4956851;29;20047;-86
2020/12/14 01:35:46;;;;;;;4.40;2.60;;;6.50;94.40;;;;;;4956627;29;20457;-87
2020/12/14 01:38:12;;;;;;;4.40;3.00;;;6.50;94.40;;;;;;4956990;28;20089;-87
2020/12/14 01:40:39;;;;;;;4.32;2.42;;;6.50;94.20;;;;;;4956727;28;20130;-87
2020/12/14 01:43:06;;;;;;;4.10;2.35;;;6.50;94.30;;;;;;4956636;28;20134;-88
2020/12/14 01:45:33;;;;;;;5.18;2.78;;;6.50;94.10;;;;;;4924336;29;20076;-86
2020/12/14 01:48:04;;;;;;;4.65;2.58;;;6.40;94.30;;;;;;4956320;28;20081;-86
2020/12/14 01:50:31;;;;;;;4.15;2.30;;;6.40;94.50;;;;;;4956648;29;20093;-87
2020/12/14 01:53:00;;;;;;;4.40;2.60;;;6.50;94.60;;;;;;4956841;28;20496;-87
2020/12/14 01:55:32;;;;;;;4.32;2.50;;;6.40;94.20;;;;;;4956524;28;20100;-87
2020/12/14 01:57:59;;;;;;;3.90;2.45;;;6.40;94.30;;;;;;4957235;29;20058;-87
2020/12/14 02:00:26;;;;;;;3.85;2.30;;;6.40;94.40;;;;;;4956828;28;20032;-87
2020/12/14 02:02:53;;;;;;;4.45;2.60;;;6.50;94.30;;;;;;4959185;28;20082;-86
2020/12/14 02:05:20;;;;;;;4.85;2.60;;;6.40;94.30;;;;;;4957027;28;20138;-87
2020/12/14 02:07:47;;;;;;;4.15;2.30;;;6.30;94.20;;;;;;4956016;29;20480;-87
2020/12/14 02:10:14;;;;;;;5.65;2.67;;;6.30;94.50;;;;;;4955114;29;20133;-87
2020/12/14 02:12:41;;;;;;;5.10;2.30;;;6.30;94.40;;;;;;4956085;28;20138;-86
2020/12/14 02:15:08;;;;;;;4.07;2.30;;;6.30;94.30;;;;;;4956248;28;20130;-86
2020/12/14 02:17:35;;;;;;;4.13;2.40;;;6.40;94.10;;;;;;4955592;28;20083;-86
2020/12/14 02:20:03;;;;;;;4.53;2.72;;;6.40;94.00;;;;;;4955205;28;20133;-86
2020/12/14 02:22:30;;;;;;;4.15;2.42;;;6.40;93.90;;;;;;4955469;29;20569;-86
2020/12/14 02:24:59;;;;;;;4.50;2.42;;;6.30;94.00;;;;;;4956075;29;20553;-86
2020/12/14 02:27:29;;;;;;;3.78;2.35;;;6.40;94.10;;;;;;4955640;28;20501;-86
2020/12/14 02:29:56;;;;;;;5.15;2.30;;;6.30;94.00;;;;;;4954924;29;20057;-86
2020/12/14 02:32:25;;;;;;;4.40;2.47;;;6.30;94.10;;;;;;4955483;28;20055;-87
2020/12/14 02:34:53;;;;;;;4.78;2.53;;;6.20;94.10;;;;;;4956136;28;20067;-87
2020/12/14 02:37:22;;;;;;;3.97;2.33;;;6.20;94.40;;;;;;4955820;28;20472;-86
2020/12/14 02:39:49;;;;;;;4.22;2.50;;;6.30;94.20;;;;;;4944950;29;20138;-86
2020/12/14 02:42:18;;;;;;;4.30;2.47;;;6.40;94.10;;;;;;4956662;29;20111;-85
2020/12/14 02:44:46;;;;;;;3.83;2.28;;;6.30;94.10;;;;;;4956256;29;20425;-87
2020/12/14 02:47:13;;;;;;;3.70;2.10;;;6.20;93.40;;;;;;4954588;29;20130;-87
2020/12/14 02:49:41;;;;;;;4.38;2.40;;;6.00;93.20;;;;;;4956100;29;20091;-88
2020/12/14 02:52:09;;;;;;;4.50;2.60;;;5.90;93.90;;;;;;4955874;29;20138;-87
2020/12/14 02:54:39;;;;;;;4.30;2.33;;;5.70;94.70;;;;;;4955827;28;20133;-89
2020/12/14 02:57:05;;;;;;;3.75;2.20;;;5.50;95.00;;;;;;4955860;29;20130;-89
2020/12/14 02:59:33;;;;;;;4.65;2.55;;;5.40;95.20;;;;;;4954995;28;20139;-89
2020/12/14 03:02:00;;;;;;;4.43;2.40;;;5.30;95.80;;;;;;4954930;29;20070;-89
2020/12/14 03:04:27;;;;;;;4.50;2.70;;;5.30;95.40;;;;;;4955764;29;20113;-89
2020/12/14 03:06:53;;;;;;;4.93;2.97;;;5.30;95.90;;;;;;4955226;28;20540;-89
2020/12/14 03:09:22;;;;;;;5.22;2.92;;;5.30;95.90;;;;;;4954476;29;20137;-88
2020/12/14 03:11:50;;;;;;;4.95;2.80;;;5.20;95.90;;;;;;4940437;29;20505;-88
2020/12/14 03:14:17;;;;;;;4.97;2.75;;;5.30;95.50;;;;;;4954891;28;20083;-87
2020/12/14 03:16:47;;;;;;;4.40;2.40;;;5.30;96.20;;;;;;4955218;28;20130;-89
2020/12/14 03:19:14;;;;;;;5.63;2.42;;;5.20;95.50;;;;;;4954521;29;20138;-87
2020/12/14 03:21:41;;;;;;;4.13;2.30;;;5.10;95.70;;;;;;4955037;29;20181;-88
2020/12/14 03:24:08;;;;;;;5.47;2.97;;;5.10;95.50;;;;;;4955098;28;20134;-88
2020/12/14 03:26:34;;;;;;;4.70;2.78;;;5.20;95.80;;;;;;4954992;28;20078;-88
2020/12/14 03:29:01;;;;;;;3.92;2.30;;;5.20;96.00;;;;;;4958099;28;20138;-89
2020/12/14 03:31:28;;;;;;;4.10;2.30;;;5.20;95.60;;;;;;4959040;29;20130;-89
2020/12/14 03:33:57;;;;;;;4.18;2.25;;;5.20;95.30;;;;;;4959707;28;20075;-89
2020/12/14 03:36:24;;;;;;;4.35;2.22;;;5.10;95.30;;;;;;4959366;28;20137;-87
2020/12/14 03:38:52;;;;;;;5.07;2.47;;;5.10;95.60;;;;;;4959234;28;20143;-87
2020/12/14 03:41:21;;;;;;;3.28;1.85;;;5.00;96.00;;;;;;4941189;29;20055;-88
2020/12/14 03:43:48;;;;;;;4.20;2.40;;;5.00;95.40;;;;;;4959341;28;20484;-88
2020/12/14 03:46:16;;;;;;;5.38;2.20;;;5.00;95.90;;;;;;4958916;28;20106;-88
2020/12/14 03:48:42;;;;;;;3.67;1.83;;;4.90;95.70;;;;;;4957537;29;20405;-89
2020/12/14 03:51:11;;;;;;;3.47;2.10;;;4.90;95.50;;;;;;4943168;29;20133;-90
2020/12/14 03:53:38;;;;;;;4.55;2.00;;;4.90;95.70;;;;;;4960002;28;20527;-89
2020/12/14 03:56:05;;;;;;;5.38;2.08;;;4.90;95.40;;;;;;4943423;29;20134;-89
2020/12/14 03:58:32;;;;;;;3.95;2.00;;;4.90;95.70;;;;;;4959768;28;20087;-87
2020/12/14 04:00:59;;;;;;;3.38;1.90;;;4.90;95.60;;;;;;4974623;28;20067;-86
2020/12/14 04:03:27;;;;;;;4.90;2.83;;;4.80;95.90;;;;;;4961916;28;20180;-86
2020/12/14 04:05:53;;;;;;;5.53;3.10;;;4.70;96.50;;;;;;4960212;28;20078;-87
2020/12/14 04:08:23;;;;;;;6.13;3.53;;;4.70;96.50;;;;;;4958684;28;20051;-86
2020/12/14 04:11:40;;;;;;;8.65;4.68;;;4.40;97.30;;;;;;4960351;29;20055;-86
2020/12/14 04:14:08;;;;;;;7.97;4.22;;;4.20;97.70;;;;;;4948310;29;20110;-85
2020/12/14 04:16:53;;;;;;;7.18;4.25;;;4.20;98.10;;;;;;4967220;28;20055;-84
2020/12/14 04:19:45;;;;;;;7.93;4.22;;;4.10;97.50;;;;;;4965592;28;20050;-83
2020/12/14 04:22:17;;;;;;;6.93;3.83;;;4.00;97.80;;;;;;4980340;28;20044;-83
2020/12/14 04:24:49;;;;;;;6.22;3.42;;;3.90;98.10;;;;;;4981382;28;20027;-83
2020/12/14 04:27:17;;;;;;;7.25;3.60;;;3.70;98.40;;;;;;4975573;29;20055;-83
2020/12/14 04:29:48;;;;;;;6.28;3.28;;;3.80;97.80;;;;;;4980760;28;20035;-82
2020/12/14 04:32:15;;;;;;;6.18;3.42;;;3.70;98.10;;;;;;4974552;28;20070;-81
2020/12/14 04:34:41;;;;;;;5.75;3.20;;;3.70;98.20;;;;;;4974555;28;20089;-84
2020/12/14 04:37:44;;;;;;;5.10;3.00;;;3.80;97.80;;;;;;4980272;28;20136;-83
2020/12/14 06:05:03;;;;;;;7.10;3.53;;;3.20;98.80;;;;;;5141579;23;20379;-86
2020/12/14 06:07:34;;;;;;;7.20;3.80;;;3.30;98.50;;;;;;5043047;28;20053;-83
2020/12/14 06:10:11;;;;;;;6.80;3.90;;;3.40;98.30;;;;;;5028914;28;20414;-84
2020/12/14 06:12:41;;;;;;;6.47;3.90;;;3.30;98.40;;;;;;5030818;28;20042;-84
2020/12/14 06:20:48;;;;;;;6.80;3.88;;;3.40;98.10;;;;;;5146574;23;20522;-86
2020/12/14 06:23:17;;;;;;;5.60;3.22;;;3.40;97.80;;;;;;5020817;28;20063;-86
2020/12/14 06:25:48;;;;;;;8.05;4.13;;;3.40;97.20;;;;;;5047478;28;20053;-83
2020/12/14 06:28:31;;;;;;;8.18;5.03;;;3.20;97.30;;;;;;5058359;28;20030;-80
2020/12/14 06:57:06;;;;;;;7.20;4.10;;;3.00;98.20;;;;;;5475729;23;20047;-86
2020/12/14 06:59:34;;;;;;;9.60;4.30;;;3.10;98.40;;;;;;5045729;28;20111;-87
2020/12/14 07:02:02;;;;;;;7.10;4.13;;;3.30;98.20;;;;;;5037012;28;20077;-85
2020/12/14 07:04:39;;;;;;;9.27;4.45;;;3.20;97.80;;;;;;5022773;28;20068;-86
2020/12/14 07:22:51;;;;;;;7.95;4.65;;;2.80;98.90;;;;;;5266475;23;20062;-83
2020/12/14 07:25:22;;;;;;;11.35;6.35;;;2.90;98.70;;;;;;5031048;28;20045;-84
2020/12/14 07:27:51;;;;;;;12.60;6.45;;;3.00;98.40;;;;;;5033090;28;20068;-84
2020/12/14 07:30:20;;;;;;;10.18;5.30;;;3.00;98.20;;;;;;5034596;28;20049;-84
2020/12/14 07:32:47;;;;;;;8.10;4.88;;;3.10;98.00;;;;;;5050387;28;20049;-85
2020/12/14 07:35:16;;;;;;;10.15;6.18;;;3.10;97.70;;;;;;5048156;28;20049;-85
2020/12/14 07:37:43;;;;;;;8.18;4.95;;;3.20;97.80;;;;;;5047379;28;20419;-85
2020/12/14 07:40:11;;;;;;;8.02;5.18;;;3.10;97.80;;;;;;5033972;28;20064;-85
2020/12/14 07:42:44;;;;;;;8.75;5.32;;;3.20;97.80;;;;;;5013321;28;20045;-85
2020/12/14 07:45:14;;;;;;;8.32;4.90;;;3.20;97.90;;;;;;5038592;28;20080;-86
2020/12/14 07:47:44;;;;;;;8.25;5.18;;;3.30;97.70;;;;;;5045751;28;20053;-86
2020/12/14 07:50:13;;;;;;;10.15;5.38;;;3.40;97.70;;;;;;5010863;28;20049;-87
2020/12/14 07:52:41;;;;;;;10.32;5.03;;;3.30;97.20;;;;;;5029201;28;20060;-85
2020/12/14 07:55:11;;;;;;;9.93;5.30;;;3.30;97.40;;;;;;5033564;28;20124;-83
2020/12/14 07:57:40;;;;;;;8.95;5.50;;;3.20;97.20;;;;;;5054254;28;20053;-84
2020/12/14 08:00:09;;;;;;;8.77;4.78;;;3.20;97.50;;;;;;5047468;28;20069;-84
2020/12/14 08:02:37;;;;;;;9.10;5.55;;;3.30;97.50;;;;;;5045131;28;20073;-85
2020/12/14 08:05:07;;;;;;;8.25;5.03;;;3.30;97.70;;;;;;5045924;28;20053;-86
2020/12/14 08:07:40;;;;;;;9.10;5.57;;;3.30;97.70;;;;;;5043305;28;20068;-85
2020/12/14 08:10:09;;;;;;;8.43;5.68;;;3.40;98.00;;;;;;5038643;28;20053;-88
2020/12/14 08:12:39;;;;;;;10.52;5.70;;;3.50;98.20;;;;;;5016483;28;20084;-88
2020/12/14 08:15:09;;;;;;;11.05;6.30;;;3.70;98.30;;;;;;5037217;28;20052;-88
2020/12/14 08:17:37;;;;;;;9.55;5.90;;;3.60;97.90;;;;;;5037546;28;20156;-87
2020/12/14 08:20:06;;;;;;;9.68;6.40;;;3.60;97.50;;;;;;5020388;28;20137;-88
2020/12/14 08:22:34;;;;;;;8.93;6.00;;;3.70;97.30;;;;;;5037143;28;20141;-87
2020/12/14 08:25:01;;;;;;;10.82;6.10;;;3.60;97.20;;;;;;5038589;28;20136;-87
2020/12/14 08:27:47;;;;;;;9.77;5.57;;;3.70;97.30;;;;;;5038520;28;20065;-86
2020/12/14 08:30:17;;;;;;;10.52;5.82;;;3.60;97.10;;;;;;5042038;28;20084;-84
2020/12/14 08:32:44;;;;;;;9.82;5.43;;;3.60;97.30;;;;;;5027950;28;20462;-84
2020/12/14 08:35:24;;;;;;;9.45;5.88;;;3.70;97.50;;;;;;5042253;28;20472;-84
2020/12/14 08:38:01;;;;;;;9.20;5.20;;;3.60;97.50;;;;;;5038129;28;20136;-87
2020/12/14 08:40:27;;;;;;;10.00;5.57;;;3.90;97.70;;;;;;5036641;28;20137;-87
2020/12/14 08:43:08;;;;;;;8.77;5.68;;;3.80;97.90;;;;;;5019079;28;20459;-87
2020/12/14 08:45:35;;;;;;;10.30;5.20;;;3.90;97.80;;;;;;5036386;28;20041;-87
2020/12/14 08:48:02;;;;;;;10.05;5.57;;;4.00;97.60;;;;;;5018803;28;20144;-88
2020/12/14 08:50:31;;;;;;;11.90;5.95;;;4.10;97.20;;;;;;5036097;28;20049;-88
2020/12/14 08:53:01;;;;;;;8.88;5.47;;;4.20;97.40;;;;;;5036717;28;20053;-88
2020/12/14 08:55:38;;;;;;;9.93;6.05;;;4.20;97.30;;;;;;5036034;28;20053;-88
2020/12/14 08:58:06;;;;;;;11.25;6.22;;;4.20;97.00;;;;;;5036100;28;20128;-88
2020/12/14 09:00:34;;;;;;;9.95;6.45;;;4.30;97.00;;;;;;5018326;28;20050;-88
2020/12/14 09:03:01;;;;;;;9.40;6.03;;;4.30;97.40;;;;;;5035969;28;20144;-88
2020/12/14 09:05:34;;;;;;;10.05;6.05;;;4.30;97.30;;;;;;5035941;28;20140;-88
2020/12/14 09:08:12;;;;;;;10.27;5.68;;;4.30;97.20;;;;;;5035703;28;20530;-88
2020/12/14 09:10:39;;;;;;;9.77;6.35;;;4.30;97.40;;;;;;5035127;28;20054;-88
2020/12/14 09:13:08;;;;;;;11.27;6.53;;;4.10;97.40;;;;;;5038122;28;20575;-87
2020/12/14 09:15:35;;;;;;;11.20;6.38;;;4.20;97.80;;;;;;5051128;28;20049;-87
2020/12/14 09:18:04;;;;;;;11.18;6.18;;;4.20;98.00;;;;;;5041246;28;20088;-88
2020/12/14 09:20:32;;;;;;;11.05;6.68;;;4.20;98.10;;;;;;5043421;28;20068;-88
2020/12/14 09:22:58;;;;;;;11.27;6.97;;;4.20;98.10;;;;;;5043405;28;20065;-88
2020/12/14 09:25:25;;;;;;;11.50;6.65;;;4.40;98.00;;;;;;5043845;28;20533;-88
2020/12/14 09:27:51;;;;;;;10.82;6.22;;;4.40;97.80;;;;;;5046268;28;20549;-88
2020/12/14 09:30:19;;;;;;;10.40;6.18;;;4.50;97.70;;;;;;5045705;28;20077;-88
2020/12/14 09:32:45;;;;;;;11.60;7.03;;;4.50;97.70;;;;;;5046496;28;20065;-89
2020/12/14 09:35:13;;;;;;;11.70;6.18;;;4.60;97.70;;;;;;5047849;28;20079;-88
2020/12/14 09:37:39;;;;;;;12.35;7.32;;;4.60;97.70;;;;;;5045772;28;20073;-87
2020/12/14 09:40:06;;;;;;;12.07;7.32;;;4.70;97.70;;;;;;5046916;28;20506;-88
2020/12/14 09:42:32;;;;;;;11.95;7.13;;;4.80;97.30;;;;;;5046143;28;20049;-87
2020/12/14 09:45:00;;;;;;;11.20;6.70;;;4.90;97.10;;;;;;5045189;28;20583;-88
2020/12/14 09:47:27;;;;;;;13.70;7.28;;;4.90;97.10;;;;;;5041353;28;20050;-88
2020/12/14 09:49:54;;;;;;;11.02;6.75;;;5.00;97.00;;;;;;5035703;28;20138;-87
2020/12/14 09:52:20;;;;;;;12.15;6.97;;;5.00;96.70;;;;;;5033519;28;20124;-88
2020/12/14 09:54:47;;;;;;;12.13;7.03;;;5.10;96.70;;;;;;5017668;28;20064;-89
2020/12/14 09:57:14;;;;;;;38.10;19.20;;;5.10;96.70;;;;;;5034315;28;20081;-87
2020/12/14 09:59:41;;;;;;;37.65;17.83;;;5.20;96.80;;;;;;5035253;28;20132;-88
2020/12/14 10:02:07;;;;;;;14.55;7.93;;;5.30;96.70;;;;;;5037218;28;20583;-88
2020/12/14 10:04:35;;;;;;;12.48;7.00;;;5.20;96.70;;;;;;5037564;28;20054;-87
2020/12/14 10:07:01;;;;;;;10.50;6.47;;;5.30;96.60;;;;;;5043704;28;20084;-88
2020/12/14 10:09:28;;;;;;;10.23;6.10;;;5.30;96.40;;;;;;5044205;28;20121;-88
2020/12/14 10:11:56;;;;;;;10.55;6.93;;;5.30;96.20;;;;;;5043427;28;20064;-89
2020/12/14 10:14:22;;;;;;;10.02;5.95;;;5.40;96.30;;;;;;5044953;28;20080;-92
2020/12/14 10:16:49;;;;;;;9.35;5.78;;;5.60;95.80;;;;;;5042289;28;20510;-87
2020/12/14 10:19:16;;;;;;;10.45;5.95;;;5.50;95.80;;;;;;5034221;28;20502;-87
2020/12/14 10:21:44;;;;;;;10.95;6.00;;;5.60;95.60;;;;;;5033919;28;20045;-87
2020/12/14 10:24:10;;;;;;;9.82;5.70;;;5.60;95.20;;;;;;5033937;28;20141;-86
2020/12/14 10:26:37;;;;;;;9.73;6.15;;;5.70;95.30;;;;;;5033871;28;20574;-87
2020/12/14 10:29:04;;;;;;;9.95;6.10;;;5.80;95.30;;;;;;5033931;28;20104;-86
2020/12/14 10:31:31;;;;;;;8.57;5.50;;;5.80;95.10;;;;;;5033787;28;20132;-87
2020/12/14 10:33:59;;;;;;;9.98;5.90;;;5.90;95.10;;;;;;5033803;28;20077;-87
2020/12/14 10:36:26;;;;;;;9.23;5.80;;;6.00;95.00;;;;;;5033953;28;20057;-87
2020/12/14 10:38:53;;;;;;;9.70;5.90;;;6.20;95.00;;;;;;5033977;28;20140;-87
2020/12/14 10:41:20;;;;;;;9.27;5.82;;;6.20;94.80;;;;;;5033763;28;20058;-87
2020/12/14 10:43:47;;;;;;;9.60;5.93;;;6.20;94.50;;;;;;5033788;28;20080;-87
2020/12/14 10:46:14;;;;;;;10.25;6.10;;;6.30;94.60;;;;;;5033418;28;20551;-87
2020/12/14 10:48:41;;;;;;;11.25;5.97;;;6.50;94.40;;;;;;5033732;28;20053;-86
2020/12/14 10:51:07;;;;;;;8.95;5.90;;;6.60;94.30;;;;;;5033078;28;20322;-86
2020/12/14 10:53:34;;;;;;;9.15;5.78;;;6.60;94.00;;;;;;5033215;28;20153;-86
2020/12/14 10:56:01;;;;;;;9.20;6.43;;;6.90;93.90;;;;;;5033036;28;20136;-86
2020/12/14 10:58:28;;;;;;;8.85;5.75;;;6.90;93.60;;;;;;5033159;28;20119;-86
2020/12/14 11:00:54;;;;;;;10.35;5.10;;;6.90;93.40;;;;;;5033088;28;20144;-86
2020/12/14 11:03:23;;;;;;;9.55;6.18;;;7.10;93.40;;;;;;5033213;28;20555;-86
2020/12/14 11:05:52;;;;;;;10.68;6.35;;;7.20;93.50;;;;;;5032987;28;20053;-86
2020/12/14 11:08:19;;;;;;;8.68;5.32;;;7.20;92.90;;;;;;5032973;28;20053;-86
2020/12/14 11:10:46;;;;;;;10.45;6.35;;;7.30;92.90;;;;;;5032505;28;20531;-86
2020/12/14 11:13:13;;;;;;;10.70;6.43;;;7.40;93.10;;;;;;5032990;28;20539;-85
2020/12/14 11:15:40;;;;;;;8.85;5.93;;;7.40;93.00;;;;;;5032612;28;20475;-84
2020/12/14 11:18:07;;;;;;;10.68;6.60;;;7.60;92.90;;;;;;5032756;28;20132;-86
2020/12/14 11:20:33;;;;;;;9.63;5.90;;;7.50;92.60;;;;;;5032689;28;20152;-86
2020/12/14 11:23:00;;;;;;;10.05;5.90;;;7.60;93.10;;;;;;5032866;28;20080;-86
2020/12/14 11:25:26;;;;;;;9.80;5.90;;;7.60;92.90;;;;;;5033020;28;20503;-87
2020/12/14 11:27:53;;;;;;;12.57;7.68;;;7.70;92.60;;;;;;5033103;28;20091;-85
2020/12/14 11:30:20;;;;;;;10.30;6.22;;;7.90;92.50;;;;;;5032614;28;20136;-86
2020/12/14 11:32:47;;;;;;;14.05;7.78;;;7.80;92.70;;;;;;5032815;28;20128;-86
2020/12/14 11:35:14;;;;;;;11.45;6.47;;;7.90;92.60;;;;;;5031416;28;20148;-86
2020/12/14 11:37:40;;;;;;;9.65;6.57;;;7.90;92.30;;;;;;5032584;28;20136;-86
2020/12/14 11:40:07;;;;;;;9.88;6.28;;;8.00;92.10;;;;;;5031717;28;20147;-86
2020/12/14 11:42:34;;;;;;;10.43;6.20;;;8.10;92.00;;;;;;5032685;28;20132;-86
2020/12/14 11:45:00;;;;;;;10.68;6.30;;;8.20;91.90;;;;;;5031231;28;20471;-86
2020/12/14 11:47:28;;;;;;;10.40;6.50;;;8.10;91.80;;;;;;5031435;28;20225;-86
2020/12/14 11:49:55;;;;;;;11.05;7.13;;;8.20;92.00;;;;;;5019011;28;20053;-86
2020/12/14 11:52:22;;;;;;;13.02;7.35;;;8.30;91.90;;;;;;5035567;28;20132;-86
2020/12/14 11:54:48;;;;;;;35.05;20.45;;;8.40;92.10;;;;;;5036596;28;20136;-85
2020/12/14 11:57:15;;;;;;;19.88;11.90;;;8.50;96.50;;;;;;5034961;28;20475;-86
2020/12/14 11:59:41;;;;;;;11.25;7.10;;;8.60;94.80;;;;;;5036144;28;20200;-85
2020/12/14 12:02:08;;;;;;;12.52;7.25;;;8.70;92.10;;;;;;5035858;28;20128;-85
2020/12/14 12:04:36;;;;;;;11.27;6.88;;;8.80;91.40;;;;;;5035956;28;20231;-85
2020/12/14 12:07:05;;;;;;;11.82;6.78;;;8.90;90.90;;;;;;5036157;28;20043;-86
2020/12/14 12:09:34;;;;;;;11.80;7.13;;;9.00;90.20;;;;;;5036222;28;20058;-85
2020/12/14 12:12:01;;;;;;;11.32;6.50;;;9.10;90.30;;;;;;5035911;28;20076;-85
2020/12/14 12:14:28;;;;;;;10.23;6.78;;;9.20;89.10;;;;;;5036102;28;20048;-85
2020/12/14 12:16:55;;;;;;;9.20;6.13;;;9.30;89.70;;;;;;5034950;28;20132;-86
2020/12/14 12:19:21;;;;;;;10.25;5.90;;;9.40;89.50;;;;;;5036103;28;20497;-85
2020/12/14 12:21:49;;;;;;;9.48;5.90;;;9.50;88.50;;;;;;5035662;28;20053;-86
2020/12/14 12:24:16;;;;;;;8.23;5.82;;;9.60;87.30;;;;;;5036009;28;20057;-86
2020/12/14 12:26:49;;;;;;;9.77;6.15;;;9.80;88.80;;;;;;5036008;28;20132;-86
2020/12/14 12:29:16;;;;;;;9.68;6.35;;;9.90;87.20;;;;;;5035838;28;20045;-85
2020/12/14 12:31:49;;;;;;;9.50;6.20;;;10.10;86.20;;;;;;5035823;28;20049;-86
2020/12/14 12:34:15;;;;;;;8.75;5.93;;;10.20;86.30;;;;;;5035216;28;20152;-86
2020/12/14 12:36:50;;;;;;;8.68;5.93;;;10.30;84.70;;;;;;5035027;28;20129;-85
2020/12/14 12:39:17;;;;;;;10.32;6.68;;;10.40;85.10;;;;;;5035848;28;20440;-86
2020/12/14 12:41:48;;;;;;;10.20;6.53;;;10.50;84.10;;;;;;5035270;28;20136;-85
2020/12/14 12:44:16;;;;;;;10.25;6.70;;;10.70;83.80;;;;;;5035645;28;20142;-85
2020/12/14 12:46:43;;;;;;;9.75;5.80;;;11.00;80.80;;;;;;5035296;28;20148;-85
2020/12/14 12:49:10;;;;;;;9.35;6.40;;;11.10;79.00;;;;;;5035538;28;20124;-85
2020/12/14 12:51:37;;;;;;;10.60;6.22;;;11.20;79.10;;;;;;5035338;28;20132;-85
2020/12/14 12:54:05;;;;;;;11.30;6.50;;;11.40;79.20;;;;;;5035325;28;20180;-85
2020/12/14 12:56:32;;;;;;;10.75;6.40;;;11.60;77.50;;;;;;5035245;28;20124;-85
2020/12/14 12:58:58;;;;;;;10.98;6.82;;;11.60;76.10;;;;;;5034502;28;20128;-85
2020/12/14 13:01:25;;;;;;;9.55;6.28;;;11.70;75.70;;;;;;5025170;28;20137;-85
2020/12/14 13:03:51;;;;;;;9.10;6.05;;;11.80;75.10;;;;;;5015535;28;20049;-85
2020/12/14 13:06:18;;;;;;;9.32;6.18;;;12.00;74.30;;;;;;5015447;28;20057;-86
2020/12/14 13:08:45;;;;;;;8.35;5.82;;;12.10;73.40;;;;;;5015374;28;20472;-85
2020/12/14 13:11:12;;;;;;;11.48;5.65;;;12.20;72.90;;;;;;5015353;28;20140;-86
2020/12/14 13:13:39;;;;;;;10.32;6.50;;;12.30;72.80;;;;;;5015468;28;20100;-85
2020/12/14 13:16:05;;;;;;;9.15;5.78;;;12.50;71.10;;;;;;5015203;28;20050;-86
2020/12/14 13:18:32;;;;;;;10.02;5.97;;;12.70;71.00;;;;;;5020327;28;20046;-86
2020/12/14 13:20:59;;;;;;;9.18;5.57;;;13.10;68.80;;;;;;5034798;28;20088;-86
2020/12/14 13:23:25;;;;;;;8.13;5.68;;;13.60;66.40;;;;;;5034326;28;20419;-84
2020/12/14 13:25:52;;;;;;;7.82;5.05;;;14.20;64.30;;;;;;5035763;28;20141;-85
2020/12/14 13:28:20;;;;;;;8.57;4.93;;;14.80;61.30;;;;;;5034836;28;20129;-85
2020/12/14 13:30:47;;;;;;;7.35;4.90;;;15.40;58.50;;;;;;5035214;28;20087;-85
2020/12/14 13:33:13;;;;;;;8.50;5.63;;;15.90;56.50;;;;;;5024340;28;20071;-85
2020/12/14 13:35:40;;;;;;;8.10;5.28;;;16.30;54.90;;;;;;5035117;28;20041;-86
2020/12/14 13:38:07;;;;;;;8.57;5.32;;;16.30;54.10;;;;;;5034555;28;20084;-86
2020/12/14 13:40:35;;;;;;;8.57;5.38;;;16.20;54.00;;;;;;5034467;28;20132;-86
2020/12/14 13:43:02;;;;;;;11.35;6.00;;;15.80;55.10;;;;;;5035753;28;20150;-85
2020/12/14 13:45:29;;;;;;;9.48;6.05;;;15.20;56.40;;;;;;5036357;28;20160;-85
2020/12/14 13:47:56;;;;;;;8.50;4.95;;;14.70;58.00;;;;;;5034981;28;20506;-87
2020/12/14 13:50:22;;;;;;;8.70;5.55;;;14.50;73.00;;;;;;5034647;28;20426;-85
2020/12/14 13:52:49;;;;;;;9.30;5.60;;;14.20;62.90;;;;;;5034964;28;20444;-85
2020/12/14 13:55:16;;;;;;;9.98;5.88;;;13.80;63.50;;;;;;5034517;28;20128;-85
2020/12/14 13:57:42;;;;;;;9.05;5.63;;;13.50;64.30;;;;;;5034704;28;20069;-86
2020/12/14 14:00:09;;;;;;;11.15;5.55;;;13.20;66.30;;;;;;5034100;28;20479;-85
2020/12/14 14:02:37;;;;;;;8.85;5.78;;;13.00;67.70;;;;;;5033771;28;20045;-86
2020/12/14 14:05:03;;;;;;;11.07;5.75;;;12.70;68.80;;;;;;5034512;28;20132;-86
2020/12/14 14:07:30;;;;;;;8.98;5.55;;;12.50;69.60;;;;;;5031928;28;20046;-86
2020/12/14 14:09:57;;;;;;;8.05;5.40;;;12.30;71.50;;;;;;5034400;28;20107;-85
2020/12/14 14:12:23;;;;;;;8.20;5.43;;;12.10;73.30;;;;;;5033772;28;20056;-86
2020/12/14 14:14:50;;;;;;;8.82;5.47;;;11.90;75.20;;;;;;5034867;28;20128;-85
2020/12/14 14:17:17;;;;;;;8.63;5.53;;;11.60;75.80;;;;;;5034376;28;20049;-86
2020/12/14 14:19:44;;;;;;;8.90;5.40;;;11.40;77.20;;;;;;5033722;28;20518;-85
2020/12/14 14:22:15;;;;;;;8.43;5.38;;;11.20;78.60;;;;;;5033772;28;20064;-84
2020/12/14 14:24:42;;;;;;;8.85;5.47;;;11.00;79.80;;;;;;5034519;28;20091;-85
2020/12/14 14:27:08;;;;;;;9.05;5.65;;;10.90;80.80;;;;;;5035119;28;20049;-85
2020/12/14 14:29:35;;;;;;;7.90;5.45;;;10.80;81.40;;;;;;5034414;28;20132;-85
2020/12/14 14:32:01;;;;;;;11.05;6.50;;;10.70;82.10;;;;;;5035095;28;20166;-85
2020/12/14 14:34:28;;;;;;;9.13;5.50;;;10.60;82.40;;;;;;5035165;28;20128;-85
2020/12/14 14:36:58;;;;;;;9.65;5.90;;;10.50;82.80;;;;;;5033983;28;20073;-82
2020/12/14 14:39:27;;;;;;;9.43;5.50;;;10.40;83.60;;;;;;5034245;28;20100;-84
2020/12/14 14:41:54;;;;;;;8.98;5.53;;;10.40;84.70;;;;;;5034016;28;20045;-84
2020/12/14 14:44:21;;;;;;;10.07;6.20;;;10.30;85.50;;;;;;5033813;28;20053;-84
2020/12/14 14:46:49;;;;;;;9.00;5.65;;;10.20;85.50;;;;;;5034135;28;20107;-85
2020/12/14 14:49:17;;;;;;;9.82;5.90;;;10.10;86.30;;;;;;5033560;28;20041;-84
2020/12/14 14:51:46;;;;;;;9.13;6.00;;;10.10;86.70;;;;;;5033567;28;20046;-85
2020/12/14 14:54:14;;;;;;;8.77;5.85;;;10.00;87.00;;;;;;5033556;28;20487;-84
2020/12/14 14:56:41;;;;;;;10.18;6.50;;;10.00;88.50;;;;;;5034099;28;20076;-85
2020/12/14 14:59:08;;;;;;;9.38;5.90;;;10.00;88.40;;;;;;5034074;28;20081;-85
2020/12/14 15:01:35;;;;;;;9.98;6.15;;;9.80;88.20;;;;;;5033762;28;20562;-85
2020/12/14 15:04:01;;;;;;;11.63;6.20;;;9.90;88.30;;;;;;5035791;28;20093;-88
2020/12/14 15:06:29;;;;;;;10.63;6.47;;;10.00;88.10;;;;;;5034786;28;20112;-87
2020/12/14 15:08:57;;;;;;;9.65;6.22;;;10.00;88.40;;;;;;5034609;28;20487;-88